sensor_id;sensor_type;location;lat;lon;timestamp;pressure;altitude;pressure_sealevel;temperature;humidity
64192;BME280;50497;50.720;-2.084;2022-11-20T00:00:49;101238.31;;;7.00;100.00
64192;BME280;50497;50.720;-2.084;2022-11-20T00:03:14;101243.53;;;7.05;100.00
64192;BME280;50497;50.720;-2.084;2022-11-20T00:05:40;101230.28;;;7.01;100.00
64192;BME280;50497;50.720;-2.084;2022-11-20T00:08:05;101238.31;;;7.00;100.00
64192;BME280;50497;50.720;-2.084;2022-11-20T00:10:31;101222.38;;;6.98;100.00
64192;BME280;50497;50.720;-2.084;2022-11-20T00:13:00;101226.59;;;7.07;100.00
64192;BME280;50497;50.720;-2.084;2022-11-20T00:15:25;101225.75;;;7.05;100.00
64192;BME280;50497;50.720;-2.084;2022-11-20T00:17:51;101230.03;;;7.12;100.00
64192;BME280;50497;50.720;-2.084;2022-11-20T00:20:17;101230.84;;;7.16;100.00
64192;BME280;50497;50.720;-2.084;2022-11-20T00:22:42;101221.06;;;7.16;100.00
64192;BME280;50497;50.720;-2.084;2022-11-20T00:25:08;101233.06;;;7.33;100.00
64192;BME280;50497;50.720;-2.084;2022-11-20T00:27:33;101234.63;;;7.40;100.00
64192;BME280;50497;50.720;-2.084;2022-11-20T00:29:59;101222.19;;;7.73;100.00
64192;BME280;50497;50.720;-2.084;2022-11-20T00:32:24;101215.06;;;7.75;100.00
64192;BME280;50497;50.720;-2.084;2022-11-20T00:34:50;101218.41;;;7.82;100.00
64192;BME280;50497;50.720;-2.084;2022-11-20T00:37:15;101187.72;;;7.69;100.00
64192;BME280;50497;50.720;-2.084;2022-11-20T00:39:41;101206.94;;;7.78;100.00
64192;BME280;50497;50.720;-2.084;2022-11-20T00:42:06;101191.19;;;7.71;100.00
64192;BME280;50497;50.720;-2.084;2022-11-20T00:44:32;101196.44;;;7.74;100.00
64192;BME280;50497;50.720;-2.084;2022-11-20T00:46:57;101192.63;;;7.83;100.00
64192;BME280;50497;50.720;-2.084;2022-11-20T00:49:22;101190.91;;;7.80;100.00
64192;BME280;50497;50.720;-2.084;2022-11-20T00:51:48;101178.50;;;7.81;100.00
64192;BME280;50497;50.720;-2.084;2022-11-20T00:54:13;101186.69;;;8.04;100.00
64192;BME280;50497;50.720;-2.084;2022-11-20T00:56:39;101184.97;;;8.02;100.00
64192;BME280;50497;50.720;-2.084;2022-11-20T00:59:05;101168.28;;;7.95;100.00
64192;BME280;50497;50.720;-2.084;2022-11-20T01:01:30;101175.22;;;8.02;100.00
64192;BME280;50497;50.720;-2.084;2022-11-20T01:03:58;101164.63;;;7.99;100.00
64192;BME280;50497;50.720;-2.084;2022-11-20T01:06:27;101159.91;;;8.09;100.00
64192;BME280;50497;50.720;-2.084;2022-11-20T01:08:55;101159.81;;;8.12;100.00
64192;BME280;50497;50.720;-2.084;2022-11-20T01:11:27;101158.88;;;8.13;100.00
64192;BME280;50497;50.720;-2.084;2022-11-20T01:13:53;101152.47;;;8.20;100.00
64192;BME280;50497;50.720;-2.084;2022-11-20T01:16:25;101157.47;;;8.29;100.00
64192;BME280;50497;50.720;-2.084;2022-11-20T01:18:53;101149.50;;;8.29;100.00
64192;BME280;50497;50.720;-2.084;2022-11-20T01:21:21;101135.03;;;8.37;100.00
64192;BME280;50497;50.720;-2.084;2022-11-20T01:23:48;101135.66;;;8.46;100.00
64192;BME280;50497;50.720;-2.084;2022-11-20T01:26:19;101125.88;;;8.47;100.00
64192;BME280;50497;50.720;-2.084;2022-11-20T01:28:45;101123.13;;;8.50;100.00
64192;BME280;50497;50.720;-2.084;2022-11-20T01:31:17;101123.84;;;8.55;100.00
64192;BME280;50497;50.720;-2.084;2022-11-20T01:33:44;101114.06;;;8.54;100.00
64192;BME280;50497;50.720;-2.084;2022-11-20T01:36:11;101113.88;;;8.60;100.00
64192;BME280;50497;50.720;-2.084;2022-11-20T01:38:37;101100.78;;;8.53;100.00
64192;BME280;50497;50.720;-2.084;2022-11-20T01:41:03;101110.28;;;8.61;100.00
64192;BME280;50497;50.720;-2.084;2022-11-20T01:43:29;101104.84;;;8.64;100.00
64192;BME280;50497;50.720;-2.084;2022-11-20T01:46:13;101101.81;;;8.75;100.00
64192;BME280;50497;50.720;-2.084;2022-11-20T01:48:42;101100.13;;;8.73;100.00
64192;BME280;50497;50.720;-2.084;2022-11-20T01:51:35;101092.13;;;8.73;100.00
64192;BME280;50497;50.720;-2.084;2022-11-20T01:54:11;101075.16;;;8.75;100.00
64192;BME280;50497;50.720;-2.084;2022-11-20T01:56:40;101079.38;;;8.81;100.00
64192;BME280;50497;50.720;-2.084;2022-11-20T01:59:09;101076.81;;;8.78;100.00
64192;BME280;50497;50.720;-2.084;2022-11-20T02:01:36;101055.81;;;8.68;100.00
64192;BME280;50497;50.720;-2.084;2022-11-20T02:04:02;101073.28;;;8.77;100.00
64192;BME280;50497;50.720;-2.084;2022-11-20T02:06:46;101063.47;;;8.78;100.00
64192;BME280;50497;50.720;-2.084;2022-11-20T02:09:15;101053.69;;;8.78;100.00
64192;BME280;50497;50.720;-2.084;2022-11-20T02:11:40;101058.91;;;8.81;100.00
64192;BME280;50497;50.720;-2.084;2022-11-20T02:14:06;101061.53;;;8.83;100.00
64192;BME280;50497;50.720;-2.084;2022-11-20T02:16:39;101056.19;;;8.83;100.00
64192;BME280;50497;50.720;-2.084;2022-11-20T02:19:06;101043.03;;;8.78;100.00
64192;BME280;50497;50.720;-2.084;2022-11-20T02:21:39;101043.94;;;8.77;100.00
64192;BME280;50497;50.720;-2.084;2022-11-20T02:24:12;101034.19;;;8.76;100.00
64192;BME280;50497;50.720;-2.084;2022-11-20T02:26:55;101016.41;;;8.77;100.00
64192;BME280;50497;50.720;-2.084;2022-11-20T02:29:39;101026.94;;;8.80;100.00
64192;BME280;50497;50.720;-2.084;2022-11-20T02:32:05;101019.94;;;8.77;100.00
64192;BME280;50497;50.720;-2.084;2022-11-20T02:34:31;101024.06;;;8.86;100.00
64192;BME280;50497;50.720;-2.084;2022-11-20T02:36:58;101009.00;;;8.85;100.00
64192;BME280;50497;50.720;-2.084;2022-11-20T02:39:25;101010.63;;;8.89;100.00
64192;BME280;50497;50.720;-2.084;2022-11-20T02:41:53;100988.78;;;8.78;100.00
64192;BME280;50497;50.720;-2.084;2022-11-20T02:44:20;101002.41;;;8.95;100.00
64192;BME280;50497;50.720;-2.084;2022-11-20T02:46:45;101005.06;;;8.95;100.00
64192;BME280;50497;50.720;-2.084;2022-11-20T02:49:11;100999.63;;;8.98;100.00
64192;BME280;50497;50.720;-2.084;2022-11-20T02:51:36;100985.38;;;8.98;100.00
64192;BME280;50497;50.720;-2.084;2022-11-20T02:54:02;100986.13;;;9.01;100.00
64192;BME280;50497;50.720;-2.084;2022-11-20T02:56:28;100975.53;;;9.00;100.00
64192;BME280;50497;50.720;-2.084;2022-11-20T02:58:53;100976.63;;;8.94;100.00
64192;BME280;50497;50.720;-2.084;2022-11-20T03:01:19;100968.41;;;9.00;100.00
64192;BME280;50497;50.720;-2.084;2022-11-20T03:03:44;100949.94;;;8.94;100.00
64192;BME280;50497;50.720;-2.084;2022-11-20T03:06:10;100951.69;;;8.95;100.00
64192;BME280;50497;50.720;-2.084;2022-11-20T03:08:35;100962.00;;;9.04;100.00
64192;BME280;50497;50.720;-2.084;2022-11-20T03:11:06;100955.84;;;9.02;100.00
64192;BME280;50497;50.720;-2.084;2022-11-20T03:13:32;100951.28;;;9.06;100.00
64192;BME280;50497;50.720;-2.084;2022-11-20T03:15:58;100940.53;;;9.07;100.00
64192;BME280;50497;50.720;-2.084;2022-11-20T03:18:23;100932.41;;;9.11;100.00
64192;BME280;50497;50.720;-2.084;2022-11-20T03:20:49;100922.75;;;9.08;100.00
64192;BME280;50497;50.720;-2.084;2022-11-20T03:23:14;100929.69;;;9.12;100.00
64192;BME280;50497;50.720;-2.084;2022-11-20T03:25:39;100914.81;;;9.06;100.00
64192;BME280;50497;50.720;-2.084;2022-11-20T03:28:05;100900.72;;;9.01;100.00
64192;BME280;50497;50.720;-2.084;2022-11-20T03:30:30;100894.38;;;9.05;100.00
64192;BME280;50497;50.720;-2.084;2022-11-20T03:32:56;100905.63;;;9.14;100.00
64192;BME280;50497;50.720;-2.084;2022-11-20T03:35:22;100905.44;;;9.18;100.00
64192;BME280;50497;50.720;-2.084;2022-11-20T03:37:47;100899.91;;;9.23;100.00
64192;BME280;50497;50.720;-2.084;2022-11-20T03:40:13;100883.81;;;9.24;100.00
64192;BME280;50497;50.720;-2.084;2022-11-20T03:42:39;100888.13;;;9.29;100.00
64192;BME280;50497;50.720;-2.084;2022-11-20T03:45:10;100874.09;;;9.23;100.00
64192;BME280;50497;50.720;-2.084;2022-11-20T03:47:36;100878.69;;;9.42;100.00
64192;BME280;50497;50.720;-2.084;2022-11-20T03:50:02;100860.84;;;9.42;100.00
64192;BME280;50497;50.720;-2.084;2022-11-20T03:52:28;100850.44;;;9.36;100.00
64192;BME280;50497;50.720;-2.084;2022-11-20T03:54:53;100847.25;;;9.49;100.00
64192;BME280;50497;50.720;-2.084;2022-11-20T03:57:18;100828.75;;;9.44;100.00
64192;BME280;50497;50.720;-2.084;2022-11-20T03:59:44;100840.78;;;9.54;100.00
64192;BME280;50497;50.720;-2.084;2022-11-20T04:02:09;100834.47;;;9.57;100.00
64192;BME280;50497;50.720;-2.084;2022-11-20T04:04:35;100837.81;;;9.62;100.00
64192;BME280;50497;50.720;-2.084;2022-11-20T04:07:00;100828.72;;;9.66;100.00
64192;BME280;50497;50.720;-2.084;2022-11-20T04:09:26;100820.56;;;9.69;100.00
64192;BME280;50497;50.720;-2.084;2022-11-20T04:11:51;100816.91;;;9.72;100.00
64192;BME280;50497;50.720;-2.084;2022-11-20T04:14:17;100806.84;;;9.78;100.00
64192;BME280;50497;50.720;-2.084;2022-11-20T04:16:43;100806.22;;;9.92;100.00
64192;BME280;50497;50.720;-2.084;2022-11-20T04:19:14;100794.41;;;9.98;100.00
64192;BME280;50497;50.720;-2.084;2022-11-20T04:21:40;100772.56;;;9.88;100.00
64192;BME280;50497;50.720;-2.084;2022-11-20T04:24:06;100803.09;;;10.03;100.00
64192;BME280;50497;50.720;-2.084;2022-11-20T04:26:32;100802.00;;;10.07;100.00
64192;BME280;50497;50.720;-2.084;2022-11-20T04:28:58;100798.53;;;10.05;100.00
64192;BME280;50497;50.720;-2.084;2022-11-20T04:31:27;100815.38;;;10.07;100.00
64192;BME280;50497;50.720;-2.084;2022-11-20T04:33:52;100797.22;;;9.95;100.00
64192;BME280;50497;50.720;-2.084;2022-11-20T04:36:19;100806.88;;;9.97;100.00
64192;BME280;50497;50.720;-2.084;2022-11-20T04:38:46;100808.50;;;9.81;100.00
64192;BME280;50497;50.720;-2.084;2022-11-20T04:41:19;100808.09;;;9.70;100.00
64192;BME280;50497;50.720;-2.084;2022-11-20T04:43:53;100821.72;;;9.64;100.00
64192;BME280;50497;50.720;-2.084;2022-11-20T04:46:24;100809.69;;;9.53;100.00
64192;BME280;50497;50.720;-2.084;2022-11-20T04:48:50;100816.97;;;9.50;100.00
64192;BME280;50497;50.720;-2.084;2022-11-20T04:51:15;100819.16;;;9.40;100.00
64192;BME280;50497;50.720;-2.084;2022-11-20T04:53:41;100816.09;;;9.27;100.00
64192;BME280;50497;50.720;-2.084;2022-11-20T04:56:08;100827.13;;;9.18;100.00
64192;BME280;50497;50.720;-2.084;2022-11-20T04:58:35;100827.13;;;9.18;100.00
64192;BME280;50497;50.720;-2.084;2022-11-20T05:03:37;100828.94;;;8.95;100.00
64192;BME280;50497;50.720;-2.084;2022-11-20T05:06:04;100850.03;;;9.01;100.00
64192;BME280;50497;50.720;-2.084;2022-11-20T05:08:31;100853.00;;;8.94;100.00
64192;BME280;50497;50.720;-2.084;2022-11-20T05:11:00;100856.78;;;8.88;100.00
64192;BME280;50497;50.720;-2.084;2022-11-20T05:13:26;100859.91;;;8.76;100.00
64192;BME280;50497;50.720;-2.084;2022-11-20T05:15:52;100882.06;;;8.78;100.00
64192;BME280;50497;50.720;-2.084;2022-11-20T05:18:17;100868.19;;;8.68;100.00
64192;BME280;50497;50.720;-2.084;2022-11-20T05:20:43;100886.59;;;8.76;100.00
64192;BME280;50497;50.720;-2.084;2022-11-20T05:23:08;100864.78;;;8.64;100.00
64192;BME280;50497;50.720;-2.084;2022-11-20T05:25:34;100862.34;;;8.58;100.00
64192;BME280;50497;50.720;-2.084;2022-11-20T05:27:59;100868.63;;;8.57;100.00
64192;BME280;50497;50.720;-2.084;2022-11-20T05:30:25;100868.03;;;8.49;100.00
64192;BME280;50497;50.720;-2.084;2022-11-20T05:32:50;100873.53;;;8.44;100.00
64192;BME280;50497;50.720;-2.084;2022-11-20T05:35:15;100869.38;;;8.36;100.00
64192;BME280;50497;50.720;-2.084;2022-11-20T05:37:41;100889.00;;;8.33;100.00
64192;BME280;50497;50.720;-2.084;2022-11-20T05:40:07;100905.03;;;8.31;100.00
64192;BME280;50497;50.720;-2.084;2022-11-20T05:42:33;100909.56;;;8.29;100.00
64192;BME280;50497;50.720;-2.084;2022-11-20T05:44:59;100907.91;;;8.27;100.00
64192;BME280;50497;50.720;-2.084;2022-11-20T05:47:26;100908.97;;;8.21;100.00
64192;BME280;50497;50.720;-2.084;2022-11-20T05:49:51;100916.25;;;8.16;100.00
64192;BME280;50497;50.720;-2.084;2022-11-20T05:52:17;100914.84;;;8.06;100.00
64192;BME280;50497;50.720;-2.084;2022-11-20T05:54:42;100910.59;;;8.00;100.00
64192;BME280;50497;50.720;-2.084;2022-11-20T05:57:08;100924.59;;;8.07;100.00
64192;BME280;50497;50.720;-2.084;2022-11-20T05:59:33;100928.16;;;8.06;100.00
64192;BME280;50497;50.720;-2.084;2022-11-20T06:01:59;100927.41;;;8.02;100.00
64192;BME280;50497;50.720;-2.084;2022-11-20T06:04:24;100921.59;;;7.89;100.00
64192;BME280;50497;50.720;-2.084;2022-11-20T06:06:50;100929.78;;;7.83;100.00
64192;BME280;50497;50.720;-2.084;2022-11-20T06:09:15;100945.66;;;7.86;100.00
64192;BME280;50497;50.720;-2.084;2022-11-20T06:11:40;100943.31;;;7.77;100.00
64192;BME280;50497;50.720;-2.084;2022-11-20T06:14:06;100947.03;;;7.71;100.00
64192;BME280;50497;50.720;-2.084;2022-11-20T06:16:31;100935.72;;;7.65;100.00
64192;BME280;50497;50.720;-2.084;2022-11-20T06:18:57;100948.13;;;7.66;100.00
64192;BME280;50497;50.720;-2.084;2022-11-20T06:21:22;100942.97;;;7.59;100.00
64192;BME280;50497;50.720;-2.084;2022-11-20T06:23:49;100957.19;;;7.58;100.00
64192;BME280;50497;50.720;-2.084;2022-11-20T06:26:23;100950.16;;;7.57;100.00
64192;BME280;50497;50.720;-2.084;2022-11-20T06:28:50;100959.91;;;7.57;100.00
64192;BME280;50497;50.720;-2.084;2022-11-20T06:31:17;100965.31;;;7.55;100.00
64192;BME280;50497;50.720;-2.084;2022-11-20T06:33:43;100945.31;;;7.42;100.00
64192;BME280;50497;50.720;-2.084;2022-11-20T06:36:10;100960.31;;;7.45;100.00
64192;BME280;50497;50.720;-2.084;2022-11-20T06:38:37;100961.16;;;7.45;100.00
64192;BME280;50497;50.720;-2.084;2022-11-20T06:41:05;100942.09;;;7.31;100.00
64192;BME280;50497;50.720;-2.084;2022-11-20T06:43:31;100948.50;;;7.24;100.00
64192;BME280;50497;50.720;-2.084;2022-11-20T06:45:58;100963.16;;;7.38;100.00
64192;BME280;50497;50.720;-2.084;2022-11-20T06:48:25;100946.72;;;7.26;100.00
64192;BME280;50497;50.720;-2.084;2022-11-20T06:50:51;100945.13;;;7.18;100.00
64192;BME280;50497;50.720;-2.084;2022-11-20T06:53:16;100962.72;;;7.24;100.00
64192;BME280;50497;50.720;-2.084;2022-11-20T06:55:45;100943.66;;;7.08;100.00
64192;BME280;50497;50.720;-2.084;2022-11-20T06:58:13;100969.03;;;7.20;100.00
64192;BME280;50497;50.720;-2.084;2022-11-20T07:00:39;100974.31;;;7.21;100.00
64192;BME280;50497;50.720;-2.084;2022-11-20T07:03:05;100976.03;;;7.24;100.00
64192;BME280;50497;50.720;-2.084;2022-11-20T07:05:30;100978.00;;;7.17;100.00
64192;BME280;50497;50.720;-2.084;2022-11-20T07:07:58;100970.91;;;7.16;100.00
64192;BME280;50497;50.720;-2.084;2022-11-20T07:10:25;100971.94;;;7.12;100.00
64192;BME280;50497;50.720;-2.084;2022-11-20T07:12:51;100965.44;;;6.91;100.00
64192;BME280;50497;50.720;-2.084;2022-11-20T07:15:18;100978.53;;;6.99;100.00
64192;BME280;50497;50.720;-2.084;2022-11-20T07:17:44;100973.47;;;6.90;100.00
64192;BME280;50497;50.720;-2.084;2022-11-20T07:20:10;100968.59;;;6.74;100.00
64192;BME280;50497;50.720;-2.084;2022-11-20T07:22:35;100970.59;;;6.66;100.00
64192;BME280;50497;50.720;-2.084;2022-11-20T07:25:01;100969.72;;;6.64;100.00
64192;BME280;50497;50.720;-2.084;2022-11-20T07:27:27;100995.25;;;6.71;100.00
64192;BME280;50497;50.720;-2.084;2022-11-20T07:29:53;100995.69;;;6.56;100.00
64192;BME280;50497;50.720;-2.084;2022-11-20T07:32:18;100999.31;;;6.52;100.00
64192;BME280;50497;50.720;-2.084;2022-11-20T07:34:44;101012.97;;;6.38;100.00
64192;BME280;50497;50.720;-2.084;2022-11-20T07:37:09;101011.19;;;6.38;100.00
64192;BME280;50497;50.720;-2.084;2022-11-20T07:39:35;101007.78;;;6.33;100.00
64192;BME280;50497;50.720;-2.084;2022-11-20T07:42:00;101000.06;;;6.22;100.00
64192;BME280;50497;50.720;-2.084;2022-11-20T07:44:26;101007.91;;;6.27;100.00
64192;BME280;50497;50.720;-2.084;2022-11-20T07:46:51;100995.56;;;6.26;100.00
64192;BME280;50497;50.720;-2.084;2022-11-20T07:49:17;100994.69;;;6.24;100.00
64192;BME280;50497;50.720;-2.084;2022-11-20T07:51:42;101000.97;;;6.21;100.00
64192;BME280;50497;50.720;-2.084;2022-11-20T07:54:07;100987.16;;;6.07;100.00
64192;BME280;50497;50.720;-2.084;2022-11-20T07:56:33;100998.63;;;6.09;100.00
64192;BME280;50497;50.720;-2.084;2022-11-20T07:58:58;101018.81;;;6.16;100.00
64192;BME280;50497;50.720;-2.084;2022-11-20T08:01:24;101023.09;;;6.22;100.00
64192;BME280;50497;50.720;-2.084;2022-11-20T08:03:49;101034.56;;;6.24;100.00
64192;BME280;50497;50.720;-2.084;2022-11-20T08:06:14;101030.69;;;6.37;100.00
64192;BME280;50497;50.720;-2.084;2022-11-20T08:08:40;101042.16;;;6.39;100.00
64192;BME280;50497;50.720;-2.084;2022-11-20T08:11:06;101036.75;;;6.42;100.00
64192;BME280;50497;50.720;-2.084;2022-11-20T08:13:50;101044.69;;;6.44;100.00
64192;BME280;50497;50.720;-2.084;2022-11-20T08:16:34;101044.06;;;6.34;100.00
64192;BME280;50497;50.720;-2.084;2022-11-20T08:19:00;101041.53;;;6.29;100.00
64192;BME280;50497;50.720;-2.084;2022-11-20T08:21:25;101062.00;;;6.26;100.00
64192;BME280;50497;50.720;-2.084;2022-11-20T08:23:50;101063.97;;;6.18;100.00
64192;BME280;50497;50.720;-2.084;2022-11-20T08:26:16;101081.41;;;6.28;100.00
64192;BME280;50497;50.720;-2.084;2022-11-20T08:28:42;101098.88;;;6.38;100.00
64192;BME280;50497;50.720;-2.084;2022-11-20T08:31:09;101091.28;;;6.59;100.00
64192;BME280;50497;50.720;-2.084;2022-11-20T08:33:35;101074.81;;;6.79;100.00
64192;BME280;50497;50.720;-2.084;2022-11-20T08:36:02;101081.63;;;6.91;100.00
64192;BME280;50497;50.720;-2.084;2022-11-20T08:38:29;101094.59;;;7.01;100.00
64192;BME280;50497;50.720;-2.084;2022-11-20T08:40:59;101102.22;;;7.15;100.00
64192;BME280;50497;50.720;-2.084;2022-11-20T08:43:44;101122.50;;;7.19;100.00
64192;BME280;50497;50.720;-2.084;2022-11-20T08:46:10;101121.63;;;7.20;100.00
64192;BME280;50497;50.720;-2.084;2022-11-20T08:48:36;101122.25;;;7.29;100.00
64192;BME280;50497;50.720;-2.084;2022-11-20T08:51:02;101108.84;;;7.32;100.00
64192;BME280;50497;50.720;-2.084;2022-11-20T08:53:28;101117.03;;;7.26;100.00
64192;BME280;50497;50.720;-2.084;2022-11-20T08:55:53;101130.66;;;7.46;100.00
64192;BME280;50497;50.720;-2.084;2022-11-20T08:58:19;101134.81;;;7.55;100.00
64192;BME280;50497;50.720;-2.084;2022-11-20T09:00:45;101133.88;;;7.57;100.00
64192;BME280;50497;50.720;-2.084;2022-11-20T09:03:10;101133.22;;;7.49;100.00
64192;BME280;50497;50.720;-2.084;2022-11-20T09:05:38;101124.78;;;7.33;100.00
64192;BME280;50497;50.720;-2.084;2022-11-20T09:08:04;101120.47;;;7.29;100.00
64192;BME280;50497;50.720;-2.084;2022-11-20T09:10:29;101117.84;;;7.28;100.00
64192;BME280;50497;50.720;-2.084;2022-11-20T09:12:55;101134.38;;;7.40;100.00
64192;BME280;50497;50.720;-2.084;2022-11-20T09:15:21;101138.78;;;7.40;100.00
64192;BME280;50497;50.720;-2.084;2022-11-20T09:17:57;101133.28;;;7.48;100.00
64192;BME280;50497;50.720;-2.084;2022-11-20T09:20:24;101134.94;;;7.50;100.00
64192;BME280;50497;50.720;-2.084;2022-11-20T09:22:50;101133.09;;;7.54;100.00
64192;BME280;50497;50.720;-2.084;2022-11-20T09:25:16;101129.50;;;7.55;100.00
64192;BME280;50497;50.720;-2.084;2022-11-20T09:27:42;101127.06;;;7.47;100.00
64192;BME280;50497;50.720;-2.084;2022-11-20T09:30:10;101122.50;;;7.52;100.00
64192;BME280;50497;50.720;-2.084;2022-11-20T09:32:36;101128.63;;;7.54;100.00
64192;BME280;50497;50.720;-2.084;2022-11-20T09:35:04;101125.16;;;7.52;100.00
64192;BME280;50497;50.720;-2.084;2022-11-20T09:37:29;101114.53;;;7.51;100.00
64192;BME280;50497;50.720;-2.084;2022-11-20T09:40:01;101122.22;;;7.62;100.00
64192;BME280;50497;50.720;-2.084;2022-11-20T09:47:57;101127.97;;;7.77;100.00
64192;BME280;50497;50.720;-2.084;2022-11-20T09:53:13;101132.06;;;7.89;100.00
64192;BME280;50497;50.720;-2.084;2022-11-20T09:55:41;101130.13;;;7.94;100.00
64192;BME280;50497;50.720;-2.084;2022-11-20T09:58:20;101129.81;;;8.05;100.00
64192;BME280;50497;50.720;-2.084;2022-11-20T10:00:51;101127.63;;;8.18;100.00
64192;BME280;50497;50.720;-2.084;2022-11-20T10:03:26;101130.78;;;8.31;100.00
64192;BME280;50497;50.720;-2.084;2022-11-20T10:06:00;101135.31;;;8.57;100.00
64192;BME280;50497;50.720;-2.084;2022-11-20T10:09:01;101138.75;;;8.87;100.00
64192;BME280;50497;50.720;-2.084;2022-11-20T10:14:04;101136.22;;;8.83;100.00
64192;BME280;50497;50.720;-2.084;2022-11-20T10:25:14;101149.88;;;10.22;100.00
64192;BME280;50497;50.720;-2.084;2022-11-20T10:30:15;101133.22;;;10.15;100.00
64192;BME280;50497;50.720;-2.084;2022-11-20T10:32:52;101149.44;;;10.10;100.00
64192;BME280;50497;50.720;-2.084;2022-11-20T10:35:35;101130.44;;;10.18;100.00
64192;BME280;50497;50.720;-2.084;2022-11-20T10:38:10;101143.69;;;10.65;100.00
64192;BME280;50497;50.720;-2.084;2022-11-20T10:40:42;101130.97;;;10.93;100.00
64192;BME280;50497;50.720;-2.084;2022-11-20T10:43:29;101124.47;;;11.19;100.00
64192;BME280;50497;50.720;-2.084;2022-11-20T10:46:08;101110.81;;;11.25;100.00
64192;BME280;50497;50.720;-2.084;2022-11-20T10:48:36;101091.56;;;10.96;100.00
64192;BME280;50497;50.720;-2.084;2022-11-20T10:53:58;101128.44;;;10.89;100.00
64192;BME280;50497;50.720;-2.084;2022-11-20T10:59:54;101141.09;;;10.64;100.00
64192;BME280;50497;50.720;-2.084;2022-11-20T11:02:34;101155.78;;;10.53;100.00
64192;BME280;50497;50.720;-2.084;2022-11-20T11:05:08;101159.59;;;10.48;100.00
64192;BME280;50497;50.720;-2.084;2022-11-20T11:07:40;101163.00;;;11.16;100.00
64192;BME280;50497;50.720;-2.084;2022-11-20T11:10:46;101167.25;;;11.82;100.00
64192;BME280;50497;50.720;-2.084;2022-11-20T11:13:26;101142.66;;;12.85;100.00
64192;BME280;50497;50.720;-2.084;2022-11-20T11:15:53;101104.97;;;13.21;100.00
64192;BME280;50497;50.720;-2.084;2022-11-20T11:18:32;101077.97;;;13.58;100.00
64192;BME280;50497;50.720;-2.084;2022-11-20T11:21:03;101074.56;;;14.19;100.00
64192;BME280;50497;50.720;-2.084;2022-11-20T11:23:36;101051.66;;;14.89;100.00
64192;BME280;50497;50.720;-2.084;2022-11-20T11:26:05;101034.41;;;14.47;100.00
64192;BME280;50497;50.720;-2.084;2022-11-20T11:28:31;101046.41;;;14.41;100.00
64192;BME280;50497;50.720;-2.084;2022-11-20T11:30:57;101022.78;;;14.46;100.00
64192;BME280;50497;50.720;-2.084;2022-11-20T11:33:27;101032.78;;;14.58;100.00
64192;BME280;50497;50.720;-2.084;2022-11-20T11:38:32;101025.94;;;14.69;100.00
64192;BME280;50497;50.720;-2.084;2022-11-20T11:41:00;101031.63;;;14.48;100.00
64192;BME280;50497;50.720;-2.084;2022-11-20T11:43:29;101026.94;;;14.36;100.00
64192;BME280;50497;50.720;-2.084;2022-11-20T11:46:23;101002.34;;;14.42;100.00
64192;BME280;50497;50.720;-2.084;2022-11-20T11:49:01;101002.28;;;14.74;100.00
64192;BME280;50497;50.720;-2.084;2022-11-20T11:54:28;101023.25;;;12.74;100.00
64192;BME280;50497;50.720;-2.084;2022-11-20T11:57:01;101055.75;;;12.33;100.00
64192;BME280;50497;50.720;-2.084;2022-11-20T12:02:22;101084.22;;;11.99;100.00
64192;BME280;50497;50.720;-2.084;2022-11-20T12:04:54;101094.81;;;12.02;100.00
64192;BME280;50497;50.720;-2.084;2022-11-20T12:10:02;101096.94;;;11.75;100.00
64192;BME280;50497;50.720;-2.084;2022-11-20T12:12:30;101105.81;;;11.57;100.00
64192;BME280;50497;50.720;-2.084;2022-11-20T12:14:58;101111.63;;;11.67;100.00
64192;BME280;50497;50.720;-2.084;2022-11-20T12:17:23;101093.84;;;11.45;100.00
64192;BME280;50497;50.720;-2.084;2022-11-20T12:19:49;101095.28;;;11.33;100.00
64192;BME280;50497;50.720;-2.084;2022-11-20T12:25:15;101108.22;;;11.63;100.00
64192;BME280;50497;50.720;-2.084;2022-11-20T12:30:32;101071.75;;;11.98;100.00
64192;BME280;50497;50.720;-2.084;2022-11-20T12:43:53;101051.69;;;12.61;100.00
64192;BME280;50497;50.720;-2.084;2022-11-20T12:57:42;100957.00;;;13.90;100.00
64192;BME280;50497;50.720;-2.084;2022-11-20T13:00:20;100976.50;;;14.39;100.00
64192;BME280;50497;50.720;-2.084;2022-11-20T13:08:40;100980.97;;;13.29;100.00
64192;BME280;50497;50.720;-2.084;2022-11-20T13:16:50;100981.00;;;12.78;100.00
64192;BME280;50497;50.720;-2.084;2022-11-20T13:19:17;101003.25;;;12.10;100.00
64192;BME280;50497;50.720;-2.084;2022-11-20T13:21:49;101023.56;;;11.78;100.00
64192;BME280;50497;50.720;-2.084;2022-11-20T13:24:30;101019.84;;;11.61;100.00
64192;BME280;50497;50.720;-2.084;2022-11-20T13:29:31;101012.75;;;11.41;100.00
64192;BME280;50497;50.720;-2.084;2022-11-20T13:34:30;101010.94;;;11.23;100.00
64192;BME280;50497;50.720;-2.084;2022-11-20T13:36:58;101017.94;;;11.25;100.00
64192;BME280;50497;50.720;-2.084;2022-11-20T13:39:36;101003.34;;;11.33;100.00
64192;BME280;50497;50.720;-2.084;2022-11-20T13:42:28;101018.34;;;11.75;100.00
64192;BME280;50497;50.720;-2.084;2022-11-20T13:45:02;100995.53;;;11.66;100.00
64192;BME280;50497;50.720;-2.084;2022-11-20T13:47:35;101009.84;;;11.65;100.00
64192;BME280;50497;50.720;-2.084;2022-11-20T13:50:04;101007.84;;;11.51;100.00
64192;BME280;50497;50.720;-2.084;2022-11-20T14:00:23;100991.16;;;11.06;100.00
64192;BME280;50497;50.720;-2.084;2022-11-20T14:05:27;100994.69;;;11.07;100.00
64192;BME280;50497;50.720;-2.084;2022-11-20T14:07:54;101007.94;;;11.10;100.00
64192;BME280;50497;50.720;-2.084;2022-11-20T14:10:29;101003.75;;;11.04;100.00
64192;BME280;50497;50.720;-2.084;2022-11-20T14:12:55;100993.16;;;11.01;100.00
64192;BME280;50497;50.720;-2.084;2022-11-20T14:15:30;100995.66;;;11.06;100.00
64192;BME280;50497;50.720;-2.084;2022-11-20T14:17:57;101002.63;;;10.89;100.00
64192;BME280;50497;50.720;-2.084;2022-11-20T14:20:26;100993.66;;;10.70;100.00